Willow, Alaska
Current Conditions -  °F | °C
As of 1:36 AM on Sunday 21 Dec 2014 (Local Time) from PAWS Reporting Station
Broken Clouds Broken Clouds  
Wind Chill: 16°   Ceiling: 8000
Heat Index: 25°   Visibility: 10mi
Dew Point: 10°   Wind: 8mph
Humidity: 54%   Direction: 70°ENE
Pressure: 28.98"   Gusts: NA
Location:  61.74°N, 150.06°W
Report Text: PAWS 211036Z AUTO 07007KT 10SM BKN080 M04/M12 A2898 RMK AO1
Loading
Personal Weather Stations






























Interactive Weather Map New forecast layout! Learn more

10-Day Weather Forecast

Advertisements
Track Severe Weather on mobile